sensor_id;sensor_type;location;lat;lon;timestamp;temperature;humidity
32769;DHT22;23049;54.304;8.826;2023-07-22T00:01:24;15.40;99.90
32769;DHT22;23049;54.304;8.826;2023-07-22T00:03:50;15.30;99.90
32769;DHT22;23049;54.304;8.826;2023-07-22T00:06:15;15.30;99.90
32769;DHT22;23049;54.304;8.826;2023-07-22T00:08:41;15.30;99.90
32769;DHT22;23049;54.304;8.826;2023-07-22T00:11:07;15.30;99.90
32769;DHT22;23049;54.304;8.826;2023-07-22T00:13:33;15.20;99.90
32769;DHT22;23049;54.304;8.826;2023-07-22T00:15:59;15.30;99.90
32769;DHT22;23049;54.304;8.826;2023-07-22T00:18:25;15.40;99.90
32769;DHT22;23049;54.304;8.826;2023-07-22T00:20:52;15.40;99.90
32769;DHT22;23049;54.304;8.826;2023-07-22T00:23:18;15.40;99.90
32769;DHT22;23049;54.304;8.826;2023-07-22T00:25:45;15.40;99.90
32769;DHT22;23049;54.304;8.826;2023-07-22T00:28:11;15.40;99.90
32769;DHT22;23049;54.304;8.826;2023-07-22T00:30:36;15.40;99.90
32769;DHT22;23049;54.304;8.826;2023-07-22T00:33:02;15.40;99.90
32769;DHT22;23049;54.304;8.826;2023-07-22T00:35:27;15.40;99.90
32769;DHT22;23049;54.304;8.826;2023-07-22T00:37:53;15.40;99.90
32769;DHT22;23049;54.304;8.826;2023-07-22T00:40:19;15.40;99.90
32769;DHT22;23049;54.304;8.826;2023-07-22T00:42:44;15.40;99.90
32769;DHT22;23049;54.304;8.826;2023-07-22T00:45:10;15.40;99.90
32769;DHT22;23049;54.304;8.826;2023-07-22T00:47:36;15.40;99.90
32769;DHT22;23049;54.304;8.826;2023-07-22T00:50:02;15.40;99.90
32769;DHT22;23049;54.304;8.826;2023-07-22T00:52:27;15.40;99.90
32769;DHT22;23049;54.304;8.826;2023-07-22T00:54:53;15.40;99.90
32769;DHT22;23049;54.304;8.826;2023-07-22T00:57:20;15.40;99.90
32769;DHT22;23049;54.304;8.826;2023-07-22T00:59:45;15.40;99.90
32769;DHT22;23049;54.304;8.826;2023-07-22T01:02:11;15.40;99.90
32769;DHT22;23049;54.304;8.826;2023-07-22T01:04:37;15.30;99.90
32769;DHT22;23049;54.304;8.826;2023-07-22T01:07:03;15.30;99.90
32769;DHT22;23049;54.304;8.826;2023-07-22T01:09:38;15.30;99.90
32769;DHT22;23049;54.304;8.826;2023-07-22T01:12:04;15.30;99.90
32769;DHT22;23049;54.304;8.826;2023-07-22T01:14:34;15.10;99.90
32769;DHT22;23049;54.304;8.826;2023-07-22T01:17:03;15.00;99.90
32769;DHT22;23049;54.304;8.826;2023-07-22T01:19:29;14.90;99.90
32769;DHT22;23049;54.304;8.826;2023-07-22T01:21:56;15.00;99.90
32769;DHT22;23049;54.304;8.826;2023-07-22T01:24:22;15.10;99.90
32769;DHT22;23049;54.304;8.826;2023-07-22T01:26:48;15.20;99.90
32769;DHT22;23049;54.304;8.826;2023-07-22T01:29:13;15.10;99.90
32769;DHT22;23049;54.304;8.826;2023-07-22T01:31:40;14.90;99.90
32769;DHT22;23049;54.304;8.826;2023-07-22T01:34:06;14.80;99.90
32769;DHT22;23049;54.304;8.826;2023-07-22T01:36:31;14.70;99.90
32769;DHT22;23049;54.304;8.826;2023-07-22T01:38:57;14.60;99.90
32769;DHT22;23049;54.304;8.826;2023-07-22T01:41:23;14.60;99.90
32769;DHT22;23049;54.304;8.826;2023-07-22T01:46:18;14.60;99.90
32769;DHT22;23049;54.304;8.826;2023-07-22T01:48:44;14.60;99.90
32769;DHT22;23049;54.304;8.826;2023-07-22T01:51:09;14.50;99.90
32769;DHT22;23049;54.304;8.826;2023-07-22T01:53:35;14.50;99.90
32769;DHT22;23049;54.304;8.826;2023-07-22T01:56:01;14.40;99.90
32769;DHT22;23049;54.304;8.826;2023-07-22T01:58:26;14.30;99.90
32769;DHT22;23049;54.304;8.826;2023-07-22T02:00:51;14.40;99.90
32769;DHT22;23049;54.304;8.826;2023-07-22T02:03:17;14.40;99.90
32769;DHT22;23049;54.304;8.826;2023-07-22T02:05:42;14.40;99.90
32769;DHT22;23049;54.304;8.826;2023-07-22T02:08:08;14.40;99.90
32769;DHT22;23049;54.304;8.826;2023-07-22T02:10:34;14.30;99.90
32769;DHT22;23049;54.304;8.826;2023-07-22T02:13:00;14.30;99.90
32769;DHT22;23049;54.304;8.826;2023-07-22T02:15:25;14.30;99.90
32769;DHT22;23049;54.304;8.826;2023-07-22T02:17:51;14.20;99.90
32769;DHT22;23049;54.304;8.826;2023-07-22T02:20:16;14.20;99.90
32769;DHT22;23049;54.304;8.826;2023-07-22T02:22:42;14.20;99.90
32769;DHT22;23049;54.304;8.826;2023-07-22T02:25:08;14.20;99.90
32769;DHT22;23049;54.304;8.826;2023-07-22T02:27:35;14.20;99.90
32769;DHT22;23049;54.304;8.826;2023-07-22T02:30:01;14.30;99.90
32769;DHT22;23049;54.304;8.826;2023-07-22T02:32:28;14.20;99.90
32769;DHT22;23049;54.304;8.826;2023-07-22T02:34:54;14.20;99.90
32769;DHT22;23049;54.304;8.826;2023-07-22T02:37:19;14.10;99.90
32769;DHT22;23049;54.304;8.826;2023-07-22T02:39:45;14.10;99.90
32769;DHT22;23049;54.304;8.826;2023-07-22T02:42:10;14.20;99.90
32769;DHT22;23049;54.304;8.826;2023-07-22T02:44:36;14.10;99.90
32769;DHT22;23049;54.304;8.826;2023-07-22T02:47:02;14.20;99.90
32769;DHT22;23049;54.304;8.826;2023-07-22T02:49:27;14.10;99.90
32769;DHT22;23049;54.304;8.826;2023-07-22T02:51:53;14.10;99.90
32769;DHT22;23049;54.304;8.826;2023-07-22T02:54:18;14.10;99.90
32769;DHT22;23049;54.304;8.826;2023-07-22T02:56:44;14.10;99.90
32769;DHT22;23049;54.304;8.826;2023-07-22T02:59:09;14.10;99.90
32769;DHT22;23049;54.304;8.826;2023-07-22T03:01:35;14.10;99.90
32769;DHT22;23049;54.304;8.826;2023-07-22T03:04:00;14.10;99.90
32769;DHT22;23049;54.304;8.826;2023-07-22T03:06:26;14.00;99.90
32769;DHT22;23049;54.304;8.826;2023-07-22T03:08:51;13.90;99.90
32769;DHT22;23049;54.304;8.826;2023-07-22T03:11:18;13.90;99.90
32769;DHT22;23049;54.304;8.826;2023-07-22T03:13:44;13.90;99.90
32769;DHT22;23049;54.304;8.826;2023-07-22T03:16:09;13.90;99.90
32769;DHT22;23049;54.304;8.826;2023-07-22T03:18:35;13.70;99.90
32769;DHT22;23049;54.304;8.826;2023-07-22T03:21:00;13.60;99.90
32769;DHT22;23049;54.304;8.826;2023-07-22T03:23:26;13.60;99.90
32769;DHT22;23049;54.304;8.826;2023-07-22T03:25:51;13.60;99.90
32769;DHT22;23049;54.304;8.826;2023-07-22T03:28:17;13.60;99.90
32769;DHT22;23049;54.304;8.826;2023-07-22T03:30:42;13.50;99.90
32769;DHT22;23049;54.304;8.826;2023-07-22T03:33:08;13.40;99.90
32769;DHT22;23049;54.304;8.826;2023-07-22T03:35:33;13.40;99.90
32769;DHT22;23049;54.304;8.826;2023-07-22T03:37:59;13.40;99.90
32769;DHT22;23049;54.304;8.826;2023-07-22T03:40:24;13.40;99.90
32769;DHT22;23049;54.304;8.826;2023-07-22T03:42:55;13.40;99.90
32769;DHT22;23049;54.304;8.826;2023-07-22T03:45:21;13.30;99.90
32769;DHT22;23049;54.304;8.826;2023-07-22T03:47:50;13.30;99.90
32769;DHT22;23049;54.304;8.826;2023-07-22T03:50:16;13.30;99.90
32769;DHT22;23049;54.304;8.826;2023-07-22T03:55:42;13.30;99.90
32769;DHT22;23049;54.304;8.826;2023-07-22T03:58:08;13.30;99.90
32769;DHT22;23049;54.304;8.826;2023-07-22T04:00:33;13.30;99.90
32769;DHT22;23049;54.304;8.826;2023-07-22T04:02:59;13.30;99.90
32769;DHT22;23049;54.304;8.826;2023-07-22T04:05:24;13.30;99.90
32769;DHT22;23049;54.304;8.826;2023-07-22T04:07:50;13.30;99.90
32769;DHT22;23049;54.304;8.826;2023-07-22T04:10:15;13.20;99.90
32769;DHT22;23049;54.304;8.826;2023-07-22T04:12:41;13.20;99.90
32769;DHT22;23049;54.304;8.826;2023-07-22T04:15:06;13.20;99.90
32769;DHT22;23049;54.304;8.826;2023-07-22T04:17:32;13.20;99.90
32769;DHT22;23049;54.304;8.826;2023-07-22T04:19:57;13.20;99.90
32769;DHT22;23049;54.304;8.826;2023-07-22T04:22:23;13.20;99.90
32769;DHT22;23049;54.304;8.826;2023-07-22T04:24:48;13.20;99.90
32769;DHT22;23049;54.304;8.826;2023-07-22T04:27:14;13.20;99.90
32769;DHT22;23049;54.304;8.826;2023-07-22T04:29:41;13.30;99.90
32769;DHT22;23049;54.304;8.826;2023-07-22T04:32:07;13.40;99.90
32769;DHT22;23049;54.304;8.826;2023-07-22T04:34:33;13.60;99.90
32769;DHT22;23049;54.304;8.826;2023-07-22T04:36:59;13.80;99.90
32769;DHT22;23049;54.304;8.826;2023-07-22T04:39:25;14.10;99.90
32769;DHT22;23049;54.304;8.826;2023-07-22T04:41:51;14.20;99.90
32769;DHT22;23049;54.304;8.826;2023-07-22T04:44:17;14.20;99.90
32769;DHT22;23049;54.304;8.826;2023-07-22T04:46:43;14.20;99.90
32769;DHT22;23049;54.304;8.826;2023-07-22T04:51:45;14.60;99.90
32769;DHT22;23049;54.304;8.826;2023-07-22T04:54:11;14.90;99.90
32769;DHT22;23049;54.304;8.826;2023-07-22T04:56:36;15.20;99.90
32769;DHT22;23049;54.304;8.826;2023-07-22T04:59:03;15.30;99.90
32769;DHT22;23049;54.304;8.826;2023-07-22T05:01:28;15.40;99.90
32769;DHT22;23049;54.304;8.826;2023-07-22T05:03:54;15.30;99.90
32769;DHT22;23049;54.304;8.826;2023-07-22T05:06:20;15.00;99.90
32769;DHT22;23049;54.304;8.826;2023-07-22T05:08:46;14.80;99.90
32769;DHT22;23049;54.304;8.826;2023-07-22T05:11:11;14.80;99.90
32769;DHT22;23049;54.304;8.826;2023-07-22T05:13:37;14.80;99.90
32769;DHT22;23049;54.304;8.826;2023-07-22T05:16:02;14.70;99.90
32769;DHT22;23049;54.304;8.826;2023-07-22T05:18:28;14.70;99.90
32769;DHT22;23049;54.304;8.826;2023-07-22T05:20:53;14.70;99.90
32769;DHT22;23049;54.304;8.826;2023-07-22T05:23:19;14.80;99.90
32769;DHT22;23049;54.304;8.826;2023-07-22T05:25:50;15.00;99.90
32769;DHT22;23049;54.304;8.826;2023-07-22T05:28:15;15.30;99.90
32769;DHT22;23049;54.304;8.826;2023-07-22T05:30:41;15.70;99.90
32769;DHT22;23049;54.304;8.826;2023-07-22T05:33:06;15.90;99.90
32769;DHT22;23049;54.304;8.826;2023-07-22T05:35:32;16.10;99.90
32769;DHT22;23049;54.304;8.826;2023-07-22T05:37:57;16.30;99.90
32769;DHT22;23049;54.304;8.826;2023-07-22T05:40:23;16.60;99.90
32769;DHT22;23049;54.304;8.826;2023-07-22T05:42:48;16.80;99.90
32769;DHT22;23049;54.304;8.826;2023-07-22T05:45:14;17.10;99.90
32769;DHT22;23049;54.304;8.826;2023-07-22T05:47:41;17.40;99.90
32769;DHT22;23049;54.304;8.826;2023-07-22T05:50:07;17.80;99.90
32769;DHT22;23049;54.304;8.826;2023-07-22T05:55:05;17.90;99.90
32769;DHT22;23049;54.304;8.826;2023-07-22T05:57:30;17.60;99.90
32769;DHT22;23049;54.304;8.826;2023-07-22T05:59:56;17.40;99.90
32769;DHT22;23049;54.304;8.826;2023-07-22T06:02:22;17.00;99.90
32769;DHT22;23049;54.304;8.826;2023-07-22T06:04:47;16.60;99.90
32769;DHT22;23049;54.304;8.826;2023-07-22T06:07:13;16.40;99.90
32769;DHT22;23049;54.304;8.826;2023-07-22T06:09:38;16.30;99.90
32769;DHT22;23049;54.304;8.826;2023-07-22T06:12:04;16.30;99.90
32769;DHT22;23049;54.304;8.826;2023-07-22T06:14:30;16.10;99.90
32769;DHT22;23049;54.304;8.826;2023-07-22T06:16:55;16.10;99.90
32769;DHT22;23049;54.304;8.826;2023-07-22T06:19:21;15.90;99.90
32769;DHT22;23049;54.304;8.826;2023-07-22T06:21:46;15.70;99.90
32769;DHT22;23049;54.304;8.826;2023-07-22T06:24:12;15.60;99.90
32769;DHT22;23049;54.304;8.826;2023-07-22T06:26:37;15.70;99.90
32769;DHT22;23049;54.304;8.826;2023-07-22T06:29:03;15.70;99.90
32769;DHT22;23049;54.304;8.826;2023-07-22T06:31:28;15.80;99.90
32769;DHT22;23049;54.304;8.826;2023-07-22T06:33:58;15.80;99.90
32769;DHT22;23049;54.304;8.826;2023-07-22T06:36:25;15.90;99.90
32769;DHT22;23049;54.304;8.826;2023-07-22T06:38:50;16.00;99.90
32769;DHT22;23049;54.304;8.826;2023-07-22T06:41:16;16.00;99.90
32769;DHT22;23049;54.304;8.826;2023-07-22T06:43:41;16.10;99.90
32769;DHT22;23049;54.304;8.826;2023-07-22T06:46:07;16.20;99.90
32769;DHT22;23049;54.304;8.826;2023-07-22T06:48:32;16.20;99.90
32769;DHT22;23049;54.304;8.826;2023-07-22T06:50:58;16.30;99.90
32769;DHT22;23049;54.304;8.826;2023-07-22T06:53:23;16.40;99.90
32769;DHT22;23049;54.304;8.826;2023-07-22T06:55:50;16.30;99.90
32769;DHT22;23049;54.304;8.826;2023-07-22T06:58:16;16.40;99.90
32769;DHT22;23049;54.304;8.826;2023-07-22T07:00:42;16.10;99.90
32769;DHT22;23049;54.304;8.826;2023-07-22T07:03:07;15.70;99.90
32769;DHT22;23049;54.304;8.826;2023-07-22T07:05:33;15.50;99.90
32769;DHT22;23049;54.304;8.826;2023-07-22T07:08:00;15.50;99.90
32769;DHT22;23049;54.304;8.826;2023-07-22T07:10:25;15.70;99.90
32769;DHT22;23049;54.304;8.826;2023-07-22T07:12:51;15.90;99.90
32769;DHT22;23049;54.304;8.826;2023-07-22T07:15:16;16.20;99.90
32769;DHT22;23049;54.304;8.826;2023-07-22T07:17:42;16.20;99.90
32769;DHT22;23049;54.304;8.826;2023-07-22T07:20:08;16.40;99.90
32769;DHT22;23049;54.304;8.826;2023-07-22T07:22:33;16.60;99.90
32769;DHT22;23049;54.304;8.826;2023-07-22T07:24:59;16.80;99.90
32769;DHT22;23049;54.304;8.826;2023-07-22T07:27:24;16.80;99.90
32769;DHT22;23049;54.304;8.826;2023-07-22T07:29:50;16.90;99.90
32769;DHT22;23049;54.304;8.826;2023-07-22T07:32:15;17.10;99.90
32769;DHT22;23049;54.304;8.826;2023-07-22T07:34:41;17.30;99.90
32769;DHT22;23049;54.304;8.826;2023-07-22T07:37:06;17.40;99.90
32769;DHT22;23049;54.304;8.826;2023-07-22T07:39:32;17.20;99.90
32769;DHT22;23049;54.304;8.826;2023-07-22T07:41:57;17.10;99.90
32769;DHT22;23049;54.304;8.826;2023-07-22T07:44:23;16.90;99.90
32769;DHT22;23049;54.304;8.826;2023-07-22T07:46:48;16.80;99.90
32769;DHT22;23049;54.304;8.826;2023-07-22T07:49:14;16.90;99.90
32769;DHT22;23049;54.304;8.826;2023-07-22T07:51:40;17.10;99.90
32769;DHT22;23049;54.304;8.826;2023-07-22T07:54:07;17.30;99.90
32769;DHT22;23049;54.304;8.826;2023-07-22T07:56:33;17.60;99.90
32769;DHT22;23049;54.304;8.826;2023-07-22T07:58:58;17.70;99.90
32769;DHT22;23049;54.304;8.826;2023-07-22T08:01:24;17.50;99.90
32769;DHT22;23049;54.304;8.826;2023-07-22T08:03:49;17.60;99.90
32769;DHT22;23049;54.304;8.826;2023-07-22T08:06:15;17.50;99.90
32769;DHT22;23049;54.304;8.826;2023-07-22T08:08:41;17.60;99.90
32769;DHT22;23049;54.304;8.826;2023-07-22T08:11:07;17.60;99.90
32769;DHT22;23049;54.304;8.826;2023-07-22T08:13:33;17.60;99.90
32769;DHT22;23049;54.304;8.826;2023-07-22T08:15:59;17.60;99.90
32769;DHT22;23049;54.304;8.826;2023-07-22T08:18:25;17.70;99.90
32769;DHT22;23049;54.304;8.826;2023-07-22T08:20:54;17.70;99.90
32769;DHT22;23049;54.304;8.826;2023-07-22T08:23:20;17.80;99.90
32769;DHT22;23049;54.304;8.826;2023-07-22T08:25:45;17.60;99.90
32769;DHT22;23049;54.304;8.826;2023-07-22T08:28:11;17.50;99.90
32769;DHT22;23049;54.304;8.826;2023-07-22T08:30:36;17.60;99.90
32769;DHT22;23049;54.304;8.826;2023-07-22T08:33:02;17.60;99.90
32769;DHT22;23049;54.304;8.826;2023-07-22T08:35:28;17.80;99.90
32769;DHT22;23049;54.304;8.826;2023-07-22T08:37:53;17.80;99.90
32769;DHT22;23049;54.304;8.826;2023-07-22T08:40:19;17.60;99.90
32769;DHT22;23049;54.304;8.826;2023-07-22T08:42:45;17.50;99.90
32769;DHT22;23049;54.304;8.826;2023-07-22T08:45:11;17.40;99.90
32769;DHT22;23049;54.304;8.826;2023-07-22T08:47:42;17.40;99.90
32769;DHT22;23049;54.304;8.826;2023-07-22T08:50:10;17.30;99.90
32769;DHT22;23049;54.304;8.826;2023-07-22T08:55:08;17.60;99.90
32769;DHT22;23049;54.304;8.826;2023-07-22T08:57:36;17.60;99.90
32769;DHT22;23049;54.304;8.826;2023-07-22T09:00:02;17.60;99.90
32769;DHT22;23049;54.304;8.826;2023-07-22T09:02:29;17.40;99.90
32769;DHT22;23049;54.304;8.826;2023-07-22T09:04:55;17.30;99.90
32769;DHT22;23049;54.304;8.826;2023-07-22T09:07:21;17.40;99.90
32769;DHT22;23049;54.304;8.826;2023-07-22T09:09:47;17.50;99.90
32769;DHT22;23049;54.304;8.826;2023-07-22T09:12:13;17.70;99.90
32769;DHT22;23049;54.304;8.826;2023-07-22T09:14:39;18.00;99.90
32769;DHT22;23049;54.304;8.826;2023-07-22T09:17:05;18.20;99.90
32769;DHT22;23049;54.304;8.826;2023-07-22T09:19:31;18.30;99.90
32769;DHT22;23049;54.304;8.826;2023-07-22T09:21:56;18.50;99.90
32769;DHT22;23049;54.304;8.826;2023-07-22T09:24:24;18.40;99.90
32769;DHT22;23049;54.304;8.826;2023-07-22T09:26:50;18.40;99.90
32769;DHT22;23049;54.304;8.826;2023-07-22T09:29:16;18.50;99.90
32769;DHT22;23049;54.304;8.826;2023-07-22T09:31:51;18.40;99.90
32769;DHT22;23049;54.304;8.826;2023-07-22T09:34:17;18.30;99.90
32769;DHT22;23049;54.304;8.826;2023-07-22T09:36:56;18.30;99.90
32769;DHT22;23049;54.304;8.826;2023-07-22T09:39:22;18.40;99.90
32769;DHT22;23049;54.304;8.826;2023-07-22T09:41:48;18.50;99.90
32769;DHT22;23049;54.304;8.826;2023-07-22T09:44:13;18.50;99.90
32769;DHT22;23049;54.304;8.826;2023-07-22T09:46:39;18.50;99.90
32769;DHT22;23049;54.304;8.826;2023-07-22T09:49:05;18.50;99.90
32769;DHT22;23049;54.304;8.826;2023-07-22T09:51:40;18.60;99.90
32769;DHT22;23049;54.304;8.826;2023-07-22T09:54:06;18.70;99.90
32769;DHT22;23049;54.304;8.826;2023-07-22T09:56:32;18.80;99.90
32769;DHT22;23049;54.304;8.826;2023-07-22T09:59:04;18.90;99.90
32769;DHT22;23049;54.304;8.826;2023-07-22T10:01:31;18.80;99.90
32769;DHT22;23049;54.304;8.826;2023-07-22T10:03:57;18.70;99.90
32769;DHT22;23049;54.304;8.826;2023-07-22T10:06:24;18.50;99.90
32769;DHT22;23049;54.304;8.826;2023-07-22T10:08:51;18.50;99.90
32769;DHT22;23049;54.304;8.826;2023-07-22T10:11:17;18.50;99.90
32769;DHT22;23049;54.304;8.826;2023-07-22T10:13:43;18.60;99.90
32769;DHT22;23049;54.304;8.826;2023-07-22T10:16:09;18.50;99.90
32769;DHT22;23049;54.304;8.826;2023-07-22T10:18:34;18.40;99.90
32769;DHT22;23049;54.304;8.826;2023-07-22T10:21:02;18.30;99.90
32769;DHT22;23049;54.304;8.826;2023-07-22T10:23:29;18.20;99.90
32769;DHT22;23049;54.304;8.826;2023-07-22T10:25:56;18.00;99.90
32769;DHT22;23049;54.304;8.826;2023-07-22T10:28:22;17.90;99.90
32769;DHT22;23049;54.304;8.826;2023-07-22T10:30:49;17.80;99.90
32769;DHT22;23049;54.304;8.826;2023-07-22T10:38:28;17.50;99.90
32769;DHT22;23049;54.304;8.826;2023-07-22T10:40:54;17.00;99.90
32769;DHT22;23049;54.304;8.826;2023-07-22T10:45:52;16.60;99.90
32769;DHT22;23049;54.304;8.826;2023-07-22T10:48:18;16.30;99.90
32769;DHT22;23049;54.304;8.826;2023-07-22T10:50:51;16.20;99.90
32769;DHT22;23049;54.304;8.826;2023-07-22T10:56:13;15.80;99.90
32769;DHT22;23049;54.304;8.826;2023-07-22T11:06:34;16.00;99.90
32769;DHT22;23049;54.304;8.826;2023-07-22T11:09:00;16.20;99.90
32769;DHT22;23049;54.304;8.826;2023-07-22T11:11:35;16.40;99.90
32769;DHT22;23049;54.304;8.826;2023-07-22T11:14:13;16.50;99.90
32769;DHT22;23049;54.304;8.826;2023-07-22T11:16:41;16.70;99.90
32769;DHT22;23049;54.304;8.826;2023-07-22T11:19:07;16.90;99.90
32769;DHT22;23049;54.304;8.826;2023-07-22T11:21:32;17.10;99.90
32769;DHT22;23049;54.304;8.826;2023-07-22T11:26:39;17.10;99.90
32769;DHT22;23049;54.304;8.826;2023-07-22T11:29:06;17.20;99.90
32769;DHT22;23049;54.304;8.826;2023-07-22T11:33:58;16.50;99.90
32769;DHT22;23049;54.304;8.826;2023-07-22T11:36:24;16.70;99.90
32769;DHT22;23049;54.304;8.826;2023-07-22T11:38:50;16.70;99.90
32769;DHT22;23049;54.304;8.826;2023-07-22T11:41:15;16.50;99.90
32769;DHT22;23049;54.304;8.826;2023-07-22T11:43:41;16.70;99.90
32769;DHT22;23049;54.304;8.826;2023-07-22T11:46:06;16.80;99.90
32769;DHT22;23049;54.304;8.826;2023-07-22T11:48:32;17.00;99.90
32769;DHT22;23049;54.304;8.826;2023-07-22T11:51:00;17.10;99.90
32769;DHT22;23049;54.304;8.826;2023-07-22T11:53:27;17.20;99.90
32769;DHT22;23049;54.304;8.826;2023-07-22T11:55:55;17.30;99.90
32769;DHT22;23049;54.304;8.826;2023-07-22T11:58:27;17.50;99.90
32769;DHT22;23049;54.304;8.826;2023-07-22T12:01:03;17.50;99.90
32769;DHT22;23049;54.304;8.826;2023-07-22T12:06:01;17.60;99.90
32769;DHT22;23049;54.304;8.826;2023-07-22T12:08:28;17.60;99.90
32769;DHT22;23049;54.304;8.826;2023-07-22T12:10:59;17.60;99.90
32769;DHT22;23049;54.304;8.826;2023-07-22T12:13:25;17.60;99.90
32769;DHT22;23049;54.304;8.826;2023-07-22T12:16:03;17.70;99.90
32769;DHT22;23049;54.304;8.826;2023-07-22T12:18:45;17.70;99.90
32769;DHT22;23049;54.304;8.826;2023-07-22T12:21:11;17.70;99.90
32769;DHT22;23049;54.304;8.826;2023-07-22T12:23:37;17.70;99.90
32769;DHT22;23049;54.304;8.826;2023-07-22T12:26:05;17.40;99.90
32769;DHT22;23049;54.304;8.826;2023-07-22T12:28:31;17.20;99.90
32769;DHT22;23049;54.304;8.826;2023-07-22T12:30:57;17.10;99.90
32769;DHT22;23049;54.304;8.826;2023-07-22T12:33:23;17.00;99.90
32769;DHT22;23049;54.304;8.826;2023-07-22T12:35:49;16.90;99.90
32769;DHT22;23049;54.304;8.826;2023-07-22T12:38:15;16.80;99.90
32769;DHT22;23049;54.304;8.826;2023-07-22T12:40:40;16.80;99.90
32769;DHT22;23049;54.304;8.826;2023-07-22T12:43:06;16.90;99.90
32769;DHT22;23049;54.304;8.826;2023-07-22T12:45:31;16.80;99.90
32769;DHT22;23049;54.304;8.826;2023-07-22T12:47:57;16.70;99.90
32769;DHT22;23049;54.304;8.826;2023-07-22T12:50:22;16.60;99.90
32769;DHT22;23049;54.304;8.826;2023-07-22T12:52:48;16.60;99.90
32769;DHT22;23049;54.304;8.826;2023-07-22T12:55:13;16.70;99.90
32769;DHT22;23049;54.304;8.826;2023-07-22T12:57:39;16.80;99.90
32769;DHT22;23049;54.304;8.826;2023-07-22T13:00:05;16.90;99.90
32769;DHT22;23049;54.304;8.826;2023-07-22T13:02:36;17.10;99.90
32769;DHT22;23049;54.304;8.826;2023-07-22T13:05:02;17.00;99.90
32769;DHT22;23049;54.304;8.826;2023-07-22T13:07:27;17.10;99.90
32769;DHT22;23049;54.304;8.826;2023-07-22T13:09:53;17.00;99.90
32769;DHT22;23049;54.304;8.826;2023-07-22T13:12:21;17.00;99.90
32769;DHT22;23049;54.304;8.826;2023-07-22T13:14:47;17.00;99.90
32769;DHT22;23049;54.304;8.826;2023-07-22T13:17:13;17.00;99.90
32769;DHT22;23049;54.304;8.826;2023-07-22T13:19:38;17.00;99.90
32769;DHT22;23049;54.304;8.826;2023-07-22T13:22:04;17.20;99.90
32769;DHT22;23049;54.304;8.826;2023-07-22T13:24:29;17.30;99.90
32769;DHT22;23049;54.304;8.826;2023-07-22T13:26:55;17.20;99.90
32769;DHT22;23049;54.304;8.826;2023-07-22T13:29:20;17.00;99.90
32769;DHT22;23049;54.304;8.826;2023-07-22T13:31:46;16.90;99.90
32769;DHT22;23049;54.304;8.826;2023-07-22T13:34:11;17.00;99.90
32769;DHT22;23049;54.304;8.826;2023-07-22T13:36:37;16.90;99.90
32769;DHT22;23049;54.304;8.826;2023-07-22T13:39:02;17.00;99.90
32769;DHT22;23049;54.304;8.826;2023-07-22T13:41:28;17.10;99.90
32769;DHT22;23049;54.304;8.826;2023-07-22T13:43:53;17.00;99.90
32769;DHT22;23049;54.304;8.826;2023-07-22T13:46:19;16.90;99.90
32769;DHT22;23049;54.304;8.826;2023-07-22T13:48:45;16.80;99.90
32769;DHT22;23049;54.304;8.826;2023-07-22T13:51:10;16.70;99.90
32769;DHT22;23049;54.304;8.826;2023-07-22T13:53:36;16.60;99.90
32769;DHT22;23049;54.304;8.826;2023-07-22T13:56:01;16.60;99.90
32769;DHT22;23049;54.304;8.826;2023-07-22T13:58:27;16.60;99.90
32769;DHT22;23049;54.304;8.826;2023-07-22T14:00:52;16.60;99.90
32769;DHT22;23049;54.304;8.826;2023-07-22T14:03:18;16.60;99.90
32769;DHT22;23049;54.304;8.826;2023-07-22T14:05:43;16.60;99.90
32769;DHT22;23049;54.304;8.826;2023-07-22T14:08:09;16.40;99.90
32769;DHT22;23049;54.304;8.826;2023-07-22T14:10:35;16.40;99.90
32769;DHT22;23049;54.304;8.826;2023-07-22T14:13:00;16.30;99.90
32769;DHT22;23049;54.304;8.826;2023-07-22T14:15:26;16.30;99.90
32769;DHT22;23049;54.304;8.826;2023-07-22T14:17:51;16.30;99.90
32769;DHT22;23049;54.304;8.826;2023-07-22T14:20:17;16.30;99.90
32769;DHT22;23049;54.304;8.826;2023-07-22T14:22:42;16.30;99.90
32769;DHT22;23049;54.304;8.826;2023-07-22T14:25:08;16.40;99.90
32769;DHT22;23049;54.304;8.826;2023-07-22T14:27:34;16.30;99.90
32769;DHT22;23049;54.304;8.826;2023-07-22T14:30:00;16.40;99.90
32769;DHT22;23049;54.304;8.826;2023-07-22T14:32:26;16.30;99.90
32769;DHT22;23049;54.304;8.826;2023-07-22T14:34:51;16.20;99.90
32769;DHT22;23049;54.304;8.826;2023-07-22T14:37:17;16.20;99.90
32769;DHT22;23049;54.304;8.826;2023-07-22T14:39:42;16.10;99.90
32769;DHT22;23049;54.304;8.826;2023-07-22T14:42:08;16.10;99.90
32769;DHT22;23049;54.304;8.826;2023-07-22T14:44:33;16.10;99.90
32769;DHT22;23049;54.304;8.826;2023-07-22T14:46:59;16.00;99.90
32769;DHT22;23049;54.304;8.826;2023-07-22T14:49:24;16.10;99.90
32769;DHT22;23049;54.304;8.826;2023-07-22T14:51:50;16.10;99.90
32769;DHT22;23049;54.304;8.826;2023-07-22T14:54:15;16.20;99.90
32769;DHT22;23049;54.304;8.826;2023-07-22T14:56:41;16.30;99.90
32769;DHT22;23049;54.304;8.826;2023-07-22T14:59:06;16.20;99.90
32769;DHT22;23049;54.304;8.826;2023-07-22T15:01:38;16.30;99.90
32769;DHT22;23049;54.304;8.826;2023-07-22T15:04:04;16.30;99.90
32769;DHT22;23049;54.304;8.826;2023-07-22T15:06:30;16.30;99.90
32769;DHT22;23049;54.304;8.826;2023-07-22T15:08:56;16.30;99.90
32769;DHT22;23049;54.304;8.826;2023-07-22T15:11:22;16.40;99.90
32769;DHT22;23049;54.304;8.826;2023-07-22T15:13:47;16.40;99.90
32769;DHT22;23049;54.304;8.826;2023-07-22T15:16:14;16.40;99.90
32769;DHT22;23049;54.304;8.826;2023-07-22T15:18:40;16.40;99.90
32769;DHT22;23049;54.304;8.826;2023-07-22T15:21:05;16.30;99.90
32769;DHT22;23049;54.304;8.826;2023-07-22T15:23:30;16.40;99.90
32769;DHT22;23049;54.304;8.826;2023-07-22T15:25:56;16.50;99.90
32769;DHT22;23049;54.304;8.826;2023-07-22T15:28:22;16.50;99.90
32769;DHT22;23049;54.304;8.826;2023-07-22T15:30:47;16.50;99.90
32769;DHT22;23049;54.304;8.826;2023-07-22T15:33:13;16.60;99.90
32769;DHT22;23049;54.304;8.826;2023-07-22T15:35:38;16.60;99.90
32769;DHT22;23049;54.304;8.826;2023-07-22T15:38:04;16.60;99.90
32769;DHT22;23049;54.304;8.826;2023-07-22T15:40:29;16.60;99.90
32769;DHT22;23049;54.304;8.826;2023-07-22T15:42:55;16.70;99.90
32769;DHT22;23049;54.304;8.826;2023-07-22T15:45:21;16.70;99.90
32769;DHT22;23049;54.304;8.826;2023-07-22T15:47:46;16.70;99.90
32769;DHT22;23049;54.304;8.826;2023-07-22T15:50:12;16.60;99.90
32769;DHT22;23049;54.304;8.826;2023-07-22T15:52:37;16.60;99.90
32769;DHT22;23049;54.304;8.826;2023-07-22T15:55:03;16.50;99.90
32769;DHT22;23049;54.304;8.826;2023-07-22T15:57:28;16.50;99.90
32769;DHT22;23049;54.304;8.826;2023-07-22T15:59:54;16.40;99.90
32769;DHT22;23049;54.304;8.826;2023-07-22T16:02:19;16.50;99.90